sensor_id;sensor_type;location;lat;lon;timestamp;P1;durP1;ratioP1;P2;durP2;ratioP2
5393;SDS011;2720;52.396;10.064;2023-05-29T00:00:39;14.43;;;4.30;;
5393;SDS011;2720;52.396;10.064;2023-05-29T00:03:07;14.27;;;3.80;;
5393;SDS011;2720;52.396;10.064;2023-05-29T00:05:34;12.57;;;3.70;;
5393;SDS011;2720;52.396;10.064;2023-05-29T00:08:01;11.50;;;3.40;;
5393;SDS011;2720;52.396;10.064;2023-05-29T00:10:28;16.20;;;4.33;;
5393;SDS011;2720;52.396;10.064;2023-05-29T00:12:57;11.67;;;4.23;;
5393;SDS011;2720;52.396;10.064;2023-05-29T00:15:26;9.67;;;4.10;;
5393;SDS011;2720;52.396;10.064;2023-05-29T00:17:53;12.70;;;4.60;;
5393;SDS011;2720;52.396;10.064;2023-05-29T00:20:20;11.47;;;3.77;;
5393;SDS011;2720;52.396;10.064;2023-05-29T00:22:47;7.30;;;3.57;;
5393;SDS011;2720;52.396;10.064;2023-05-29T00:25:14;11.70;;;4.23;;
5393;SDS011;2720;52.396;10.064;2023-05-29T00:27:41;9.93;;;4.30;;
5393;SDS011;2720;52.396;10.064;2023-05-29T00:30:10;7.97;;;3.60;;
5393;SDS011;2720;52.396;10.064;2023-05-29T00:32:37;18.03;;;4.73;;
5393;SDS011;2720;52.396;10.064;2023-05-29T00:35:06;13.30;;;4.47;;
5393;SDS011;2720;52.396;10.064;2023-05-29T00:37:33;11.80;;;5.40;;
5393;SDS011;2720;52.396;10.064;2023-05-29T00:40:00;13.33;;;4.80;;
5393;SDS011;2720;52.396;10.064;2023-05-29T00:42:28;26.53;;;4.93;;
5393;SDS011;2720;52.396;10.064;2023-05-29T00:44:55;19.00;;;5.90;;
5393;SDS011;2720;52.396;10.064;2023-05-29T00:47:24;15.17;;;4.60;;
5393;SDS011;2720;52.396;10.064;2023-05-29T00:49:51;13.60;;;4.53;;
5393;SDS011;2720;52.396;10.064;2023-05-29T00:52:19;20.57;;;4.33;;
5393;SDS011;2720;52.396;10.064;2023-05-29T00:54:47;10.60;;;3.80;;
5393;SDS011;2720;52.396;10.064;2023-05-29T00:57:14;23.00;;;5.17;;
5393;SDS011;2720;52.396;10.064;2023-05-29T00:59:43;15.20;;;5.10;;
5393;SDS011;2720;52.396;10.064;2023-05-29T01:02:12;12.10;;;4.03;;
5393;SDS011;2720;52.396;10.064;2023-05-29T01:04:42;21.63;;;4.93;;
5393;SDS011;2720;52.396;10.064;2023-05-29T01:07:10;13.23;;;4.90;;
5393;SDS011;2720;52.396;10.064;2023-05-29T01:09:39;10.57;;;3.37;;
5393;SDS011;2720;52.396;10.064;2023-05-29T01:12:08;16.70;;;4.00;;
5393;SDS011;2720;52.396;10.064;2023-05-29T01:14:45;10.07;;;3.70;;
5393;SDS011;2720;52.396;10.064;2023-05-29T01:17:19;14.00;;;3.77;;
5393;SDS011;2720;52.396;10.064;2023-05-29T01:20:00;17.37;;;4.93;;
5393;SDS011;2720;52.396;10.064;2023-05-29T01:22:37;9.73;;;3.97;;
5393;SDS011;2720;52.396;10.064;2023-05-29T01:25:18;10.93;;;3.80;;
5393;SDS011;2720;52.396;10.064;2023-05-29T01:27:51;11.43;;;3.37;;
5393;SDS011;2720;52.396;10.064;2023-05-29T01:30:19;9.37;;;4.10;;
5393;SDS011;2720;52.396;10.064;2023-05-29T01:32:48;9.20;;;3.20;;
5393;SDS011;2720;52.396;10.064;2023-05-29T01:35:15;21.33;;;4.30;;
5393;SDS011;2720;52.396;10.064;2023-05-29T01:37:42;13.17;;;4.47;;
5393;SDS011;2720;52.396;10.064;2023-05-29T01:40:09;11.73;;;4.03;;
5393;SDS011;2720;52.396;10.064;2023-05-29T01:42:36;17.93;;;4.73;;
5393;SDS011;2720;52.396;10.064;2023-05-29T01:45:05;19.80;;;4.67;;
5393;SDS011;2720;52.396;10.064;2023-05-29T01:47:33;23.00;;;4.93;;
5393;SDS011;2720;52.396;10.064;2023-05-29T01:50:01;16.50;;;4.60;;
5393;SDS011;2720;52.396;10.064;2023-05-29T01:52:30;8.83;;;3.47;;
5393;SDS011;2720;52.396;10.064;2023-05-29T01:54:57;10.27;;;3.83;;
5393;SDS011;2720;52.396;10.064;2023-05-29T01:57:25;10.57;;;3.90;;
5393;SDS011;2720;52.396;10.064;2023-05-29T01:59:52;25.03;;;4.67;;
5393;SDS011;2720;52.396;10.064;2023-05-29T02:02:22;10.70;;;3.90;;
5393;SDS011;2720;52.396;10.064;2023-05-29T02:04:49;12.73;;;3.50;;
5393;SDS011;2720;52.396;10.064;2023-05-29T02:07:16;11.57;;;4.33;;
5393;SDS011;2720;52.396;10.064;2023-05-29T02:09:44;28.17;;;4.13;;
5393;SDS011;2720;52.396;10.064;2023-05-29T02:12:11;12.90;;;4.23;;
5393;SDS011;2720;52.396;10.064;2023-05-29T02:14:38;21.57;;;5.00;;
5393;SDS011;2720;52.396;10.064;2023-05-29T02:17:06;18.13;;;4.50;;
5393;SDS011;2720;52.396;10.064;2023-05-29T02:19:35;10.63;;;3.90;;
5393;SDS011;2720;52.396;10.064;2023-05-29T02:22:03;10.60;;;3.93;;
5393;SDS011;2720;52.396;10.064;2023-05-29T02:24:30;13.83;;;4.13;;
5393;SDS011;2720;52.396;10.064;2023-05-29T02:26:57;10.77;;;3.80;;
5393;SDS011;2720;52.396;10.064;2023-05-29T02:29:24;14.70;;;4.30;;
5393;SDS011;2720;52.396;10.064;2023-05-29T02:31:51;10.30;;;4.00;;
5393;SDS011;2720;52.396;10.064;2023-05-29T02:34:18;12.47;;;3.50;;
5393;SDS011;2720;52.396;10.064;2023-05-29T02:36:49;14.50;;;4.80;;
5393;SDS011;2720;52.396;10.064;2023-05-29T02:39:17;16.07;;;3.63;;
5393;SDS011;2720;52.396;10.064;2023-05-29T02:41:44;11.70;;;3.57;;
5393;SDS011;2720;52.396;10.064;2023-05-29T02:44:11;7.97;;;3.87;;
5393;SDS011;2720;52.396;10.064;2023-05-29T02:46:38;11.30;;;3.70;;
5393;SDS011;2720;52.396;10.064;2023-05-29T02:49:05;12.13;;;3.17;;
5393;SDS011;2720;52.396;10.064;2023-05-29T02:51:32;15.63;;;3.40;;
5393;SDS011;2720;52.396;10.064;2023-05-29T02:54:00;26.40;;;3.90;;
5393;SDS011;2720;52.396;10.064;2023-05-29T02:56:27;7.97;;;3.00;;
5393;SDS011;2720;52.396;10.064;2023-05-29T02:58:54;15.13;;;3.33;;
5393;SDS011;2720;52.396;10.064;2023-05-29T03:01:21;8.30;;;2.77;;
5393;SDS011;2720;52.396;10.064;2023-05-29T03:03:48;7.97;;;3.27;;
5393;SDS011;2720;52.396;10.064;2023-05-29T03:06:15;16.43;;;3.03;;
5393;SDS011;2720;52.396;10.064;2023-05-29T03:08:42;11.00;;;3.50;;
5393;SDS011;2720;52.396;10.064;2023-05-29T03:11:13;14.23;;;3.40;;
5393;SDS011;2720;52.396;10.064;2023-05-29T03:13:40;6.37;;;2.90;;
5393;SDS011;2720;52.396;10.064;2023-05-29T03:16:07;7.93;;;3.33;;
5393;SDS011;2720;52.396;10.064;2023-05-29T03:18:35;17.53;;;3.87;;
5393;SDS011;2720;52.396;10.064;2023-05-29T03:21:02;15.43;;;3.80;;
5393;SDS011;2720;52.396;10.064;2023-05-29T03:23:29;11.60;;;3.93;;
5393;SDS011;2720;52.396;10.064;2023-05-29T03:25:56;14.83;;;3.30;;
5393;SDS011;2720;52.396;10.064;2023-05-29T03:28:25;13.70;;;3.70;;
5393;SDS011;2720;52.396;10.064;2023-05-29T03:30:51;14.03;;;3.37;;
5393;SDS011;2720;52.396;10.064;2023-05-29T03:33:18;18.40;;;4.07;;
5393;SDS011;2720;52.396;10.064;2023-05-29T03:35:45;12.57;;;2.87;;
5393;SDS011;2720;52.396;10.064;2023-05-29T03:38:12;8.63;;;3.33;;
5393;SDS011;2720;52.396;10.064;2023-05-29T03:40:39;22.07;;;4.00;;
5393;SDS011;2720;52.396;10.064;2023-05-29T03:43:06;20.83;;;5.07;;
5393;SDS011;2720;52.396;10.064;2023-05-29T03:45:35;14.33;;;4.20;;
5393;SDS011;2720;52.396;10.064;2023-05-29T03:48:02;12.23;;;3.47;;
5393;SDS011;2720;52.396;10.064;2023-05-29T03:50:29;11.27;;;2.93;;
5393;SDS011;2720;52.396;10.064;2023-05-29T03:52:56;18.73;;;3.10;;
5393;SDS011;2720;52.396;10.064;2023-05-29T03:55:23;8.60;;;3.50;;
5393;SDS011;2720;52.396;10.064;2023-05-29T03:57:49;14.60;;;3.20;;
5393;SDS011;2720;52.396;10.064;2023-05-29T04:00:16;17.30;;;3.67;;
5393;SDS011;2720;52.396;10.064;2023-05-29T04:02:45;9.10;;;3.10;;
5393;SDS011;2720;52.396;10.064;2023-05-29T04:05:12;10.87;;;3.33;;
5393;SDS011;2720;52.396;10.064;2023-05-29T04:07:39;8.70;;;2.67;;
5393;SDS011;2720;52.396;10.064;2023-05-29T04:10:06;8.77;;;3.50;;
5393;SDS011;2720;52.396;10.064;2023-05-29T04:12:34;7.60;;;2.90;;
5393;SDS011;2720;52.396;10.064;2023-05-29T04:15:01;17.03;;;3.70;;
5393;SDS011;2720;52.396;10.064;2023-05-29T04:17:28;11.63;;;2.83;;
5393;SDS011;2720;52.396;10.064;2023-05-29T04:19:56;17.97;;;2.50;;
5393;SDS011;2720;52.396;10.064;2023-05-29T04:22:23;12.30;;;3.10;;
5393;SDS011;2720;52.396;10.064;2023-05-29T04:24:50;9.23;;;2.83;;
5393;SDS011;2720;52.396;10.064;2023-05-29T04:27:17;7.30;;;2.63;;
5393;SDS011;2720;52.396;10.064;2023-05-29T04:29:44;10.17;;;2.87;;
5393;SDS011;2720;52.396;10.064;2023-05-29T04:32:11;9.97;;;2.73;;
5393;SDS011;2720;52.396;10.064;2023-05-29T04:34:38;10.03;;;2.50;;
5393;SDS011;2720;52.396;10.064;2023-05-29T04:37:06;12.03;;;3.47;;
5393;SDS011;2720;52.396;10.064;2023-05-29T04:39:33;11.10;;;2.40;;
5393;SDS011;2720;52.396;10.064;2023-05-29T04:42:00;9.80;;;3.87;;
5393;SDS011;2720;52.396;10.064;2023-05-29T04:44:27;12.00;;;2.50;;
5393;SDS011;2720;52.396;10.064;2023-05-29T04:46:55;8.57;;;1.90;;
5393;SDS011;2720;52.396;10.064;2023-05-29T04:49:22;9.37;;;2.63;;
5393;SDS011;2720;52.396;10.064;2023-05-29T04:51:50;10.93;;;2.43;;
5393;SDS011;2720;52.396;10.064;2023-05-29T04:54:21;15.83;;;2.53;;
5393;SDS011;2720;52.396;10.064;2023-05-29T04:56:48;6.37;;;1.93;;
5393;SDS011;2720;52.396;10.064;2023-05-29T04:59:15;12.37;;;2.23;;
5393;SDS011;2720;52.396;10.064;2023-05-29T05:01:42;11.70;;;3.03;;
5393;SDS011;2720;52.396;10.064;2023-05-29T05:04:09;18.93;;;2.10;;
5393;SDS011;2720;52.396;10.064;2023-05-29T05:06:36;13.53;;;2.20;;
5393;SDS011;2720;52.396;10.064;2023-05-29T05:09:04;9.60;;;2.30;;
5393;SDS011;2720;52.396;10.064;2023-05-29T05:11:32;8.27;;;2.37;;
5393;SDS011;2720;52.396;10.064;2023-05-29T05:13:59;10.70;;;2.33;;
5393;SDS011;2720;52.396;10.064;2023-05-29T05:16:26;9.93;;;2.40;;
5393;SDS011;2720;52.396;10.064;2023-05-29T05:18:53;11.57;;;3.00;;
5393;SDS011;2720;52.396;10.064;2023-05-29T05:21:20;7.77;;;1.77;;
5393;SDS011;2720;52.396;10.064;2023-05-29T05:23:47;9.50;;;2.87;;
5393;SDS011;2720;52.396;10.064;2023-05-29T05:26:14;12.83;;;2.67;;
5393;SDS011;2720;52.396;10.064;2023-05-29T05:28:42;10.97;;;2.07;;
5393;SDS011;2720;52.396;10.064;2023-05-29T05:31:09;8.30;;;2.00;;
5393;SDS011;2720;52.396;10.064;2023-05-29T05:33:36;18.03;;;2.67;;
5393;SDS011;2720;52.396;10.064;2023-05-29T05:36:03;12.33;;;2.23;;
5393;SDS011;2720;52.396;10.064;2023-05-29T05:38:31;12.87;;;2.70;;
5393;SDS011;2720;52.396;10.064;2023-05-29T05:40:58;10.20;;;2.50;;
5393;SDS011;2720;52.396;10.064;2023-05-29T05:43:25;13.50;;;2.57;;
5393;SDS011;2720;52.396;10.064;2023-05-29T05:45:55;18.90;;;3.53;;
5393;SDS011;2720;52.396;10.064;2023-05-29T05:48:22;11.83;;;3.33;;
5393;SDS011;2720;52.396;10.064;2023-05-29T05:50:49;12.60;;;2.80;;
5393;SDS011;2720;52.396;10.064;2023-05-29T05:53:16;9.10;;;2.50;;
5393;SDS011;2720;52.396;10.064;2023-05-29T05:55:43;15.43;;;2.60;;
5393;SDS011;2720;52.396;10.064;2023-05-29T05:58:10;10.20;;;2.20;;
5393;SDS011;2720;52.396;10.064;2023-05-29T06:00:37;11.30;;;2.20;;
5393;SDS011;2720;52.396;10.064;2023-05-29T06:03:06;10.63;;;2.47;;
5393;SDS011;2720;52.396;10.064;2023-05-29T06:05:33;18.60;;;3.67;;
5393;SDS011;2720;52.396;10.064;2023-05-29T06:08:01;16.00;;;2.77;;
5393;SDS011;2720;52.396;10.064;2023-05-29T06:10:28;21.97;;;3.10;;
5393;SDS011;2720;52.396;10.064;2023-05-29T06:12:55;16.87;;;2.27;;
5393;SDS011;2720;52.396;10.064;2023-05-29T06:15:22;10.40;;;1.93;;
5393;SDS011;2720;52.396;10.064;2023-05-29T06:17:49;16.63;;;2.20;;
5393;SDS011;2720;52.396;10.064;2023-05-29T06:20:18;16.27;;;2.53;;
5393;SDS011;2720;52.396;10.064;2023-05-29T06:22:45;16.87;;;2.27;;
5393;SDS011;2720;52.396;10.064;2023-05-29T06:25:15;18.60;;;3.50;;
5393;SDS011;2720;52.396;10.064;2023-05-29T06:27:43;15.10;;;2.50;;
5393;SDS011;2720;52.396;10.064;2023-05-29T06:30:10;7.90;;;2.27;;
5393;SDS011;2720;52.396;10.064;2023-05-29T06:32:38;12.13;;;2.30;;
5393;SDS011;2720;52.396;10.064;2023-05-29T06:35:05;10.67;;;2.23;;
5393;SDS011;2720;52.396;10.064;2023-05-29T06:37:34;13.27;;;2.23;;
5393;SDS011;2720;52.396;10.064;2023-05-29T06:40:01;16.67;;;2.40;;
5393;SDS011;2720;52.396;10.064;2023-05-29T06:42:29;12.63;;;2.43;;
5393;SDS011;2720;52.396;10.064;2023-05-29T06:44:56;10.80;;;3.13;;
5393;SDS011;2720;52.396;10.064;2023-05-29T06:47:23;14.47;;;2.47;;
5393;SDS011;2720;52.396;10.064;2023-05-29T06:49:50;11.60;;;2.70;;
5393;SDS011;2720;52.396;10.064;2023-05-29T06:52:17;10.80;;;2.30;;
5393;SDS011;2720;52.396;10.064;2023-05-29T06:54:46;17.13;;;2.07;;
5393;SDS011;2720;52.396;10.064;2023-05-29T06:57:13;14.80;;;2.27;;
5393;SDS011;2720;52.396;10.064;2023-05-29T06:59:39;14.33;;;2.23;;
5393;SDS011;2720;52.396;10.064;2023-05-29T07:02:06;14.20;;;3.10;;
5393;SDS011;2720;52.396;10.064;2023-05-29T07:04:33;10.83;;;2.00;;
5393;SDS011;2720;52.396;10.064;2023-05-29T07:07:00;10.87;;;2.23;;
5393;SDS011;2720;52.396;10.064;2023-05-29T07:09:27;8.70;;;2.13;;
5393;SDS011;2720;52.396;10.064;2023-05-29T07:11:56;12.13;;;3.87;;
5393;SDS011;2720;52.396;10.064;2023-05-29T07:14:23;9.27;;;2.60;;
5393;SDS011;2720;52.396;10.064;2023-05-29T07:16:50;17.97;;;2.60;;
5393;SDS011;2720;52.396;10.064;2023-05-29T07:19:17;11.73;;;2.70;;
5393;SDS011;2720;52.396;10.064;2023-05-29T07:21:44;13.70;;;2.33;;
5393;SDS011;2720;52.396;10.064;2023-05-29T07:24:11;14.63;;;2.20;;
5393;SDS011;2720;52.396;10.064;2023-05-29T07:26:37;11.97;;;2.10;;
5393;SDS011;2720;52.396;10.064;2023-05-29T07:29:06;10.13;;;2.13;;
5393;SDS011;2720;52.396;10.064;2023-05-29T07:31:33;14.47;;;2.10;;
5393;SDS011;2720;52.396;10.064;2023-05-29T07:34:00;15.13;;;2.13;;
5393;SDS011;2720;52.396;10.064;2023-05-29T07:36:28;15.47;;;2.40;;
5393;SDS011;2720;52.396;10.064;2023-05-29T07:38:56;12.53;;;2.30;;
5393;SDS011;2720;52.396;10.064;2023-05-29T07:41:23;13.33;;;2.50;;
5393;SDS011;2720;52.396;10.064;2023-05-29T07:43:51;13.87;;;2.50;;
5393;SDS011;2720;52.396;10.064;2023-05-29T07:46:21;11.73;;;2.07;;
5393;SDS011;2720;52.396;10.064;2023-05-29T07:48:48;12.83;;;2.33;;
5393;SDS011;2720;52.396;10.064;2023-05-29T07:51:15;15.10;;;2.23;;
5393;SDS011;2720;52.396;10.064;2023-05-29T07:53:43;9.67;;;1.70;;
5393;SDS011;2720;52.396;10.064;2023-05-29T07:56:11;12.67;;;2.17;;
5393;SDS011;2720;52.396;10.064;2023-05-29T07:58:38;10.90;;;2.33;;
5393;SDS011;2720;52.396;10.064;2023-05-29T08:01:06;14.53;;;2.20;;
5393;SDS011;2720;52.396;10.064;2023-05-29T08:03:34;10.97;;;2.60;;
5393;SDS011;2720;52.396;10.064;2023-05-29T08:06:01;8.90;;;2.30;;
5393;SDS011;2720;52.396;10.064;2023-05-29T08:08:29;10.90;;;1.80;;
5393;SDS011;2720;52.396;10.064;2023-05-29T08:10:56;12.67;;;2.33;;
5393;SDS011;2720;52.396;10.064;2023-05-29T08:13:23;8.07;;;2.00;;
5393;SDS011;2720;52.396;10.064;2023-05-29T08:15:50;14.97;;;2.67;;
5393;SDS011;2720;52.396;10.064;2023-05-29T08:18:17;15.93;;;2.23;;
5393;SDS011;2720;52.396;10.064;2023-05-29T08:20:46;13.13;;;1.67;;
5393;SDS011;2720;52.396;10.064;2023-05-29T08:23:13;10.20;;;2.20;;
5393;SDS011;2720;52.396;10.064;2023-05-29T08:25:40;11.23;;;2.87;;
5393;SDS011;2720;52.396;10.064;2023-05-29T08:28:07;24.23;;;2.40;;
5393;SDS011;2720;52.396;10.064;2023-05-29T08:30:33;12.50;;;1.80;;
5393;SDS011;2720;52.396;10.064;2023-05-29T08:33:02;9.50;;;1.67;;
5393;SDS011;2720;52.396;10.064;2023-05-29T08:35:29;12.00;;;2.13;;
5393;SDS011;2720;52.396;10.064;2023-05-29T08:37:57;8.33;;;2.03;;
5393;SDS011;2720;52.396;10.064;2023-05-29T08:40:24;15.20;;;2.27;;
5393;SDS011;2720;52.396;10.064;2023-05-29T08:42:54;12.17;;;2.37;;
5393;SDS011;2720;52.396;10.064;2023-05-29T08:45:24;9.03;;;2.00;;
5393;SDS011;2720;52.396;10.064;2023-05-29T08:47:51;13.33;;;3.03;;
5393;SDS011;2720;52.396;10.064;2023-05-29T08:50:20;17.73;;;2.70;;
5393;SDS011;2720;52.396;10.064;2023-05-29T08:52:48;16.80;;;2.20;;
5393;SDS011;2720;52.396;10.064;2023-05-29T08:55:17;14.77;;;2.77;;
5393;SDS011;2720;52.396;10.064;2023-05-29T08:57:45;8.33;;;1.63;;
5393;SDS011;2720;52.396;10.064;2023-05-29T09:00:13;9.00;;;1.97;;
5393;SDS011;2720;52.396;10.064;2023-05-29T09:02:45;15.77;;;1.60;;
5393;SDS011;2720;52.396;10.064;2023-05-29T09:05:12;8.33;;;2.10;;
5393;SDS011;2720;52.396;10.064;2023-05-29T09:07:39;13.53;;;2.90;;
5393;SDS011;2720;52.396;10.064;2023-05-29T09:10:06;12.73;;;2.33;;
5393;SDS011;2720;52.396;10.064;2023-05-29T09:12:36;13.57;;;3.20;;
5393;SDS011;2720;52.396;10.064;2023-05-29T09:15:08;16.17;;;2.83;;
5393;SDS011;2720;52.396;10.064;2023-05-29T09:17:43;13.33;;;2.90;;
5393;SDS011;2720;52.396;10.064;2023-05-29T09:20:14;10.97;;;2.47;;
5393;SDS011;2720;52.396;10.064;2023-05-29T09:22:43;15.53;;;2.60;;
5393;SDS011;2720;52.396;10.064;2023-05-29T09:25:18;7.07;;;2.17;;
5393;SDS011;2720;52.396;10.064;2023-05-29T09:27:50;13.30;;;2.10;;
5393;SDS011;2720;52.396;10.064;2023-05-29T09:30:30;13.77;;;2.50;;
5393;SDS011;2720;52.396;10.064;2023-05-29T09:32:58;18.07;;;2.60;;
5393;SDS011;2720;52.396;10.064;2023-05-29T09:35:27;7.90;;;1.70;;
5393;SDS011;2720;52.396;10.064;2023-05-29T09:38:02;11.00;;;1.80;;
5393;SDS011;2720;52.396;10.064;2023-05-29T09:40:30;6.10;;;1.67;;
5393;SDS011;2720;52.396;10.064;2023-05-29T09:43:08;13.63;;;2.40;;
5393;SDS011;2720;52.396;10.064;2023-05-29T09:45:37;11.67;;;1.50;;
5393;SDS011;2720;52.396;10.064;2023-05-29T09:48:05;11.73;;;2.10;;
5393;SDS011;2720;52.396;10.064;2023-05-29T09:50:33;10.20;;;2.37;;
5393;SDS011;2720;52.396;10.064;2023-05-29T09:53:00;19.40;;;1.97;;
5393;SDS011;2720;52.396;10.064;2023-05-29T09:55:28;9.53;;;1.97;;
5393;SDS011;2720;52.396;10.064;2023-05-29T09:57:58;10.10;;;3.10;;
5393;SDS011;2720;52.396;10.064;2023-05-29T10:00:28;11.17;;;1.80;;
5393;SDS011;2720;52.396;10.064;2023-05-29T10:02:56;10.00;;;1.90;;
5393;SDS011;2720;52.396;10.064;2023-05-29T10:05:23;10.17;;;2.50;;
5393;SDS011;2720;52.396;10.064;2023-05-29T10:07:51;8.77;;;2.07;;
5393;SDS011;2720;52.396;10.064;2023-05-29T10:10:20;9.73;;;2.23;;
5393;SDS011;2720;52.396;10.064;2023-05-29T10:12:51;10.27;;;2.40;;
5393;SDS011;2720;52.396;10.064;2023-05-29T10:15:20;13.73;;;2.00;;
5393;SDS011;2720;52.396;10.064;2023-05-29T10:17:59;15.13;;;1.70;;
5393;SDS011;2720;52.396;10.064;2023-05-29T10:20:29;8.10;;;1.90;;
5393;SDS011;2720;52.396;10.064;2023-05-29T10:22:58;7.00;;;1.73;;
5393;SDS011;2720;52.396;10.064;2023-05-29T10:25:29;11.53;;;2.07;;
5393;SDS011;2720;52.396;10.064;2023-05-29T10:27:57;12.90;;;2.43;;
5393;SDS011;2720;52.396;10.064;2023-05-29T10:30:27;9.00;;;2.07;;
5393;SDS011;2720;52.396;10.064;2023-05-29T10:33:08;9.73;;;1.53;;
5393;SDS011;2720;52.396;10.064;2023-05-29T10:35:44;10.60;;;2.70;;
5393;SDS011;2720;52.396;10.064;2023-05-29T10:38:14;9.23;;;2.43;;
5393;SDS011;2720;52.396;10.064;2023-05-29T10:40:43;12.00;;;2.10;;
5393;SDS011;2720;52.396;10.064;2023-05-29T10:45:56;9.10;;;2.17;;
5393;SDS011;2720;52.396;10.064;2023-05-29T10:48:40;11.70;;;2.30;;
5393;SDS011;2720;52.396;10.064;2023-05-29T10:51:10;14.77;;;1.80;;
5393;SDS011;2720;52.396;10.064;2023-05-29T10:53:51;7.30;;;1.83;;
5393;SDS011;2720;52.396;10.064;2023-05-29T10:56:22;7.23;;;1.70;;
5393;SDS011;2720;52.396;10.064;2023-05-29T10:58:54;16.50;;;2.10;;
5393;SDS011;2720;52.396;10.064;2023-05-29T11:01:23;6.67;;;2.13;;
5393;SDS011;2720;52.396;10.064;2023-05-29T11:03:53;9.63;;;1.97;;
5393;SDS011;2720;52.396;10.064;2023-05-29T11:06:41;7.07;;;1.63;;
5393;SDS011;2720;52.396;10.064;2023-05-29T11:09:11;10.00;;;2.20;;
5393;SDS011;2720;52.396;10.064;2023-05-29T11:14:44;6.40;;;1.93;;
5393;SDS011;2720;52.396;10.064;2023-05-29T11:20:00;7.30;;;1.80;;
5393;SDS011;2720;52.396;10.064;2023-05-29T11:22:33;19.30;;;2.07;;
5393;SDS011;2720;52.396;10.064;2023-05-29T11:25:13;11.63;;;1.90;;
5393;SDS011;2720;52.396;10.064;2023-05-29T11:27:41;9.20;;;2.27;;
5393;SDS011;2720;52.396;10.064;2023-05-29T11:30:11;10.27;;;2.10;;
5393;SDS011;2720;52.396;10.064;2023-05-29T11:32:39;11.17;;;2.50;;
5393;SDS011;2720;52.396;10.064;2023-05-29T11:35:08;10.40;;;2.40;;
5393;SDS011;2720;52.396;10.064;2023-05-29T11:37:38;5.47;;;2.10;;
5393;SDS011;2720;52.396;10.064;2023-05-29T11:40:07;8.37;;;2.10;;
5393;SDS011;2720;52.396;10.064;2023-05-29T11:42:36;11.53;;;2.50;;
5393;SDS011;2720;52.396;10.064;2023-05-29T11:45:12;9.87;;;2.47;;
5393;SDS011;2720;52.396;10.064;2023-05-29T11:47:50;9.53;;;2.27;;
5393;SDS011;2720;52.396;10.064;2023-05-29T11:50:20;10.37;;;2.33;;
5393;SDS011;2720;52.396;10.064;2023-05-29T11:52:47;8.57;;;2.00;;
5393;SDS011;2720;52.396;10.064;2023-05-29T11:55:14;11.00;;;2.70;;
5393;SDS011;2720;52.396;10.064;2023-05-29T11:57:41;10.30;;;2.33;;
5393;SDS011;2720;52.396;10.064;2023-05-29T12:00:11;6.47;;;2.03;;
5393;SDS011;2720;52.396;10.064;2023-05-29T12:02:40;7.90;;;2.43;;
5393;SDS011;2720;52.396;10.064;2023-05-29T12:05:08;10.03;;;2.00;;
5393;SDS011;2720;52.396;10.064;2023-05-29T12:07:46;6.17;;;2.30;;
5393;SDS011;2720;52.396;10.064;2023-05-29T12:10:15;5.97;;;2.57;;
5393;SDS011;2720;52.396;10.064;2023-05-29T12:12:43;5.40;;;2.30;;
5393;SDS011;2720;52.396;10.064;2023-05-29T12:15:13;12.00;;;2.80;;
5393;SDS011;2720;52.396;10.064;2023-05-29T12:17:41;10.63;;;2.00;;
5393;SDS011;2720;52.396;10.064;2023-05-29T12:20:09;16.43;;;2.43;;
5393;SDS011;2720;52.396;10.064;2023-05-29T12:22:39;8.20;;;2.30;;
5393;SDS011;2720;52.396;10.064;2023-05-29T12:25:09;10.27;;;2.13;;
5393;SDS011;2720;52.396;10.064;2023-05-29T12:27:38;12.13;;;2.37;;
5393;SDS011;2720;52.396;10.064;2023-05-29T12:30:09;10.10;;;2.60;;
5393;SDS011;2720;52.396;10.064;2023-05-29T12:32:37;9.53;;;2.50;;
5393;SDS011;2720;52.396;10.064;2023-05-29T12:35:15;6.43;;;1.77;;
5393;SDS011;2720;52.396;10.064;2023-05-29T12:37:45;10.83;;;2.47;;
5393;SDS011;2720;52.396;10.064;2023-05-29T12:40:16;12.30;;;2.50;;
5393;SDS011;2720;52.396;10.064;2023-05-29T12:42:45;5.83;;;2.40;;
5393;SDS011;2720;52.396;10.064;2023-05-29T12:45:13;12.00;;;2.80;;
5393;SDS011;2720;52.396;10.064;2023-05-29T12:47:50;12.80;;;2.80;;
5393;SDS011;2720;52.396;10.064;2023-05-29T12:50:21;8.00;;;2.40;;
5393;SDS011;2720;52.396;10.064;2023-05-29T12:52:54;14.03;;;2.57;;
5393;SDS011;2720;52.396;10.064;2023-05-29T12:55:22;9.60;;;2.27;;
5393;SDS011;2720;52.396;10.064;2023-05-29T12:57:49;10.47;;;2.30;;
5393;SDS011;2720;52.396;10.064;2023-05-29T13:00:17;9.30;;;3.03;;
5393;SDS011;2720;52.396;10.064;2023-05-29T13:02:45;8.93;;;2.20;;
5393;SDS011;2720;52.396;10.064;2023-05-29T13:05:12;8.10;;;3.33;;
5393;SDS011;2720;52.396;10.064;2023-05-29T13:07:40;10.70;;;2.90;;
5393;SDS011;2720;52.396;10.064;2023-05-29T13:10:09;10.57;;;2.27;;
5393;SDS011;2720;52.396;10.064;2023-05-29T13:12:36;8.80;;;2.57;;
5393;SDS011;2720;52.396;10.064;2023-05-29T13:15:04;7.67;;;2.50;;
5393;SDS011;2720;52.396;10.064;2023-05-29T13:17:31;8.10;;;2.37;;
5393;SDS011;2720;52.396;10.064;2023-05-29T13:19:59;8.87;;;2.07;;
5393;SDS011;2720;52.396;10.064;2023-05-29T13:22:26;7.23;;;2.30;;
5393;SDS011;2720;52.396;10.064;2023-05-29T13:24:56;15.33;;;3.97;;
5393;SDS011;2720;52.396;10.064;2023-05-29T13:27:25;8.73;;;4.17;;
5393;SDS011;2720;52.396;10.064;2023-05-29T13:29:53;14.80;;;2.53;;
5393;SDS011;2720;52.396;10.064;2023-05-29T13:32:20;7.80;;;2.07;;
5393;SDS011;2720;52.396;10.064;2023-05-29T13:34:47;7.53;;;1.70;;
5393;SDS011;2720;52.396;10.064;2023-05-29T13:37:14;8.30;;;2.37;;
5393;SDS011;2720;52.396;10.064;2023-05-29T13:39:41;12.53;;;2.80;;
5393;SDS011;2720;52.396;10.064;2023-05-29T13:42:08;10.00;;;2.57;;
5393;SDS011;2720;52.396;10.064;2023-05-29T13:44:37;9.90;;;2.23;;
5393;SDS011;2720;52.396;10.064;2023-05-29T13:47:05;8.80;;;2.00;;
5393;SDS011;2720;52.396;10.064;2023-05-29T13:49:33;8.43;;;2.33;;
5393;SDS011;2720;52.396;10.064;2023-05-29T13:52:00;7.77;;;1.70;;
5393;SDS011;2720;52.396;10.064;2023-05-29T13:54:27;11.53;;;1.77;;
5393;SDS011;2720;52.396;10.064;2023-05-29T13:56:55;11.73;;;1.90;;
5393;SDS011;2720;52.396;10.064;2023-05-29T13:59:23;10.13;;;2.10;;
5393;SDS011;2720;52.396;10.064;2023-05-29T14:01:51;7.80;;;2.37;;
5393;SDS011;2720;52.396;10.064;2023-05-29T14:04:18;9.00;;;2.20;;
5393;SDS011;2720;52.396;10.064;2023-05-29T14:06:45;9.70;;;1.93;;
5393;SDS011;2720;52.396;10.064;2023-05-29T14:09:12;9.87;;;2.10;;
5393;SDS011;2720;52.396;10.064;2023-05-29T14:11:39;17.83;;;2.20;;
5393;SDS011;2720;52.396;10.064;2023-05-29T14:14:06;12.50;;;2.20;;
5393;SDS011;2720;52.396;10.064;2023-05-29T14:16:33;22.47;;;2.00;;
5393;SDS011;2720;52.396;10.064;2023-05-29T14:19:02;10.83;;;2.50;;
5393;SDS011;2720;52.396;10.064;2023-05-29T14:21:29;9.83;;;2.23;;
5393;SDS011;2720;52.396;10.064;2023-05-29T14:23:55;10.00;;;1.97;;
5393;SDS011;2720;52.396;10.064;2023-05-29T14:26:22;15.20;;;2.43;;
5393;SDS011;2720;52.396;10.064;2023-05-29T14:28:49;13.83;;;2.40;;
5393;SDS011;2720;52.396;10.064;2023-05-29T14:31:16;11.07;;;2.60;;
5393;SDS011;2720;52.396;10.064;2023-05-29T14:33:43;12.03;;;2.33;;
5393;SDS011;2720;52.396;10.064;2023-05-29T14:36:11;15.97;;;2.80;;
5393;SDS011;2720;52.396;10.064;2023-05-29T14:38:38;12.40;;;2.13;;
5393;SDS011;2720;52.396;10.064;2023-05-29T14:41:06;13.80;;;2.80;;
5393;SDS011;2720;52.396;10.064;2023-05-29T14:43:33;9.60;;;2.20;;
5393;SDS011;2720;52.396;10.064;2023-05-29T14:46:00;12.43;;;2.30;;
5393;SDS011;2720;52.396;10.064;2023-05-29T14:48:27;11.60;;;2.43;;
5393;SDS011;2720;52.396;10.064;2023-05-29T14:50:54;17.73;;;3.00;;
5393;SDS011;2720;52.396;10.064;2023-05-29T14:53:22;20.10;;;2.90;;
5393;SDS011;2720;52.396;10.064;2023-05-29T14:55:49;12.17;;;2.27;;
5393;SDS011;2720;52.396;10.064;2023-05-29T14:58:16;11.37;;;3.10;;
5393;SDS011;2720;52.396;10.064;2023-05-29T15:00:43;11.80;;;2.27;;
5393;SDS011;2720;52.396;10.064;2023-05-29T15:03:10;12.83;;;2.70;;
5393;SDS011;2720;52.396;10.064;2023-05-29T15:05:37;9.50;;;1.87;;